sensor_id;sensor_type;location;lat;lon;timestamp;temperature;humidity
19039;DHT22;9652;49.014;12.052;2023-07-13T00:00:50;24.00;69.20
19039;DHT22;9652;49.014;12.052;2023-07-13T00:03:17;23.80;69.00
19039;DHT22;9652;49.014;12.052;2023-07-13T00:05:44;24.00;69.00
19039;DHT22;9652;49.014;12.052;2023-07-13T00:08:11;23.90;69.00
19039;DHT22;9652;49.014;12.052;2023-07-13T00:10:42;23.90;69.00
19039;DHT22;9652;49.014;12.052;2023-07-13T00:13:12;23.90;69.00
19039;DHT22;9652;49.014;12.052;2023-07-13T00:15:39;23.90;69.00
19039;DHT22;9652;49.014;12.052;2023-07-13T00:18:07;23.90;69.10
19039;DHT22;9652;49.014;12.052;2023-07-13T00:20:34;23.80;69.20
19039;DHT22;9652;49.014;12.052;2023-07-13T00:23:02;23.80;69.20
19039;DHT22;9652;49.014;12.052;2023-07-13T00:25:29;23.80;69.40
19039;DHT22;9652;49.014;12.052;2023-07-13T00:27:56;23.70;69.40
19039;DHT22;9652;49.014;12.052;2023-07-13T00:30:23;23.70;69.40
19039;DHT22;9652;49.014;12.052;2023-07-13T00:32:51;23.60;69.40
19039;DHT22;9652;49.014;12.052;2023-07-13T00:35:20;23.70;69.50
19039;DHT22;9652;49.014;12.052;2023-07-13T00:37:47;23.60;69.60
19039;DHT22;9652;49.014;12.052;2023-07-13T00:40:15;23.60;69.50
19039;DHT22;9652;49.014;12.052;2023-07-13T00:42:44;23.60;69.50
19039;DHT22;9652;49.014;12.052;2023-07-13T00:48:35;23.60;70.20
19039;DHT22;9652;49.014;12.052;2023-07-13T00:51:05;23.70;69.70
19039;DHT22;9652;49.014;12.052;2023-07-13T00:53:33;23.50;70.00
19039;DHT22;9652;49.014;12.052;2023-07-13T00:56:01;23.50;69.90
19039;DHT22;9652;49.014;12.052;2023-07-13T00:58:30;23.50;70.20
19039;DHT22;9652;49.014;12.052;2023-07-13T01:00:57;23.60;70.50
19039;DHT22;9652;49.014;12.052;2023-07-13T01:03:24;23.50;70.50
19039;DHT22;9652;49.014;12.052;2023-07-13T01:05:53;23.60;70.70
19039;DHT22;9652;49.014;12.052;2023-07-13T01:08:22;23.50;70.50
19039;DHT22;9652;49.014;12.052;2023-07-13T01:10:54;23.30;70.50
19039;DHT22;9652;49.014;12.052;2023-07-13T01:13:22;23.50;70.70
19039;DHT22;9652;49.014;12.052;2023-07-13T01:15:51;23.50;70.60
19039;DHT22;9652;49.014;12.052;2023-07-13T01:18:20;23.60;70.70
19039;DHT22;9652;49.014;12.052;2023-07-13T01:20:55;23.50;70.70
19039;DHT22;9652;49.014;12.052;2023-07-13T01:23:25;23.60;70.70
19039;DHT22;9652;49.014;12.052;2023-07-13T01:25:55;23.60;70.50
19039;DHT22;9652;49.014;12.052;2023-07-13T01:28:24;23.60;70.50
19039;DHT22;9652;49.014;12.052;2023-07-13T01:30:54;23.70;70.50
19039;DHT22;9652;49.014;12.052;2023-07-13T01:33:22;23.50;70.40
19039;DHT22;9652;49.014;12.052;2023-07-13T01:35:50;23.60;70.40
19039;DHT22;9652;49.014;12.052;2023-07-13T01:38:21;23.50;70.40
19039;DHT22;9652;49.014;12.052;2023-07-13T01:40:49;23.60;70.60
19039;DHT22;9652;49.014;12.052;2023-07-13T01:43:17;23.60;70.50
19039;DHT22;9652;49.014;12.052;2023-07-13T01:45:45;23.50;70.50
19039;DHT22;9652;49.014;12.052;2023-07-13T01:48:13;23.50;70.50
19039;DHT22;9652;49.014;12.052;2023-07-13T01:50:41;23.50;70.60
19039;DHT22;9652;49.014;12.052;2023-07-13T01:53:08;23.60;70.70
19039;DHT22;9652;49.014;12.052;2023-07-13T01:55:37;23.50;70.70
19039;DHT22;9652;49.014;12.052;2023-07-13T01:58:05;23.50;70.70
19039;DHT22;9652;49.014;12.052;2023-07-13T02:00:32;23.50;70.60
19039;DHT22;9652;49.014;12.052;2023-07-13T02:03:01;23.40;70.50
19039;DHT22;9652;49.014;12.052;2023-07-13T02:05:30;23.40;70.40
19039;DHT22;9652;49.014;12.052;2023-07-13T02:07:57;23.40;70.40
19039;DHT22;9652;49.014;12.052;2023-07-13T02:10:25;23.40;70.40
19039;DHT22;9652;49.014;12.052;2023-07-13T02:12:53;23.40;70.40
19039;DHT22;9652;49.014;12.052;2023-07-13T02:15:20;23.30;70.30
19039;DHT22;9652;49.014;12.052;2023-07-13T02:17:47;23.20;70.30
19039;DHT22;9652;49.014;12.052;2023-07-13T02:20:14;23.20;70.30
19039;DHT22;9652;49.014;12.052;2023-07-13T02:22:42;23.20;70.30
19039;DHT22;9652;49.014;12.052;2023-07-13T02:25:09;23.10;70.40
19039;DHT22;9652;49.014;12.052;2023-07-13T02:27:36;22.90;70.40
19039;DHT22;9652;49.014;12.052;2023-07-13T02:30:06;23.00;70.50
19039;DHT22;9652;49.014;12.052;2023-07-13T02:32:37;23.00;70.60
19039;DHT22;9652;49.014;12.052;2023-07-13T02:35:05;23.00;70.60
19039;DHT22;9652;49.014;12.052;2023-07-13T02:37:32;22.90;70.60
19039;DHT22;9652;49.014;12.052;2023-07-13T02:39:59;22.90;70.70
19039;DHT22;9652;49.014;12.052;2023-07-13T02:42:29;23.20;71.00
19039;DHT22;9652;49.014;12.052;2023-07-13T02:44:56;22.80;70.80
19039;DHT22;9652;49.014;12.052;2023-07-13T02:47:24;22.80;70.90
19039;DHT22;9652;49.014;12.052;2023-07-13T02:49:52;22.70;70.90
19039;DHT22;9652;49.014;12.052;2023-07-13T02:52:20;22.70;70.80
19039;DHT22;9652;49.014;12.052;2023-07-13T02:54:47;22.70;71.00
19039;DHT22;9652;49.014;12.052;2023-07-13T02:57:14;22.70;71.00
19039;DHT22;9652;49.014;12.052;2023-07-13T02:59:41;22.60;71.00
19039;DHT22;9652;49.014;12.052;2023-07-13T03:02:09;22.50;71.00
19039;DHT22;9652;49.014;12.052;2023-07-13T03:04:37;22.50;71.10
19039;DHT22;9652;49.014;12.052;2023-07-13T03:07:06;22.50;71.20
19039;DHT22;9652;49.014;12.052;2023-07-13T03:09:36;22.50;71.10
19039;DHT22;9652;49.014;12.052;2023-07-13T03:12:07;22.40;71.10
19039;DHT22;9652;49.014;12.052;2023-07-13T03:14:35;22.40;71.20
19039;DHT22;9652;49.014;12.052;2023-07-13T03:17:05;22.40;71.20
19039;DHT22;9652;49.014;12.052;2023-07-13T03:19:35;22.30;71.30
19039;DHT22;9652;49.014;12.052;2023-07-13T03:22:05;22.40;71.40
19039;DHT22;9652;49.014;12.052;2023-07-13T03:24:34;22.30;71.40
19039;DHT22;9652;49.014;12.052;2023-07-13T03:27:05;22.20;71.40
19039;DHT22;9652;49.014;12.052;2023-07-13T03:29:35;22.20;71.40
19039;DHT22;9652;49.014;12.052;2023-07-13T03:32:02;22.20;71.60
19039;DHT22;9652;49.014;12.052;2023-07-13T03:34:31;22.20;71.70
19039;DHT22;9652;49.014;12.052;2023-07-13T03:36:59;22.10;71.80
19039;DHT22;9652;49.014;12.052;2023-07-13T03:39:27;22.10;71.90
19039;DHT22;9652;49.014;12.052;2023-07-13T03:41:57;22.10;72.10
19039;DHT22;9652;49.014;12.052;2023-07-13T03:44:24;22.10;72.10
19039;DHT22;9652;49.014;12.052;2023-07-13T03:46:54;22.00;72.10
19039;DHT22;9652;49.014;12.052;2023-07-13T03:49:22;22.00;72.20
19039;DHT22;9652;49.014;12.052;2023-07-13T03:51:50;22.00;72.40
19039;DHT22;9652;49.014;12.052;2023-07-13T03:54:17;22.00;72.50
19039;DHT22;9652;49.014;12.052;2023-07-13T03:56:45;21.90;72.50
19039;DHT22;9652;49.014;12.052;2023-07-13T03:59:13;22.00;72.70
19039;DHT22;9652;49.014;12.052;2023-07-13T04:01:40;22.00;72.70
19039;DHT22;9652;49.014;12.052;2023-07-13T04:04:07;22.00;72.80
19039;DHT22;9652;49.014;12.052;2023-07-13T04:06:34;21.90;72.80
19039;DHT22;9652;49.014;12.052;2023-07-13T04:09:03;22.00;73.00
19039;DHT22;9652;49.014;12.052;2023-07-13T04:11:32;22.00;73.10
19039;DHT22;9652;49.014;12.052;2023-07-13T04:14:03;22.00;73.10
19039;DHT22;9652;49.014;12.052;2023-07-13T04:16:30;22.00;73.20
19039;DHT22;9652;49.014;12.052;2023-07-13T04:18:57;22.10;73.30
19039;DHT22;9652;49.014;12.052;2023-07-13T04:21:26;22.10;73.40
19039;DHT22;9652;49.014;12.052;2023-07-13T04:23:54;22.30;73.60
19039;DHT22;9652;49.014;12.052;2023-07-13T04:26:21;22.20;73.50
19039;DHT22;9652;49.014;12.052;2023-07-13T04:28:49;22.20;73.80
19039;DHT22;9652;49.014;12.052;2023-07-13T04:31:18;22.30;73.80
19039;DHT22;9652;49.014;12.052;2023-07-13T04:33:45;22.40;73.80
19039;DHT22;9652;49.014;12.052;2023-07-13T04:36:14;22.50;73.80
19039;DHT22;9652;49.014;12.052;2023-07-13T04:38:42;22.50;73.70
19039;DHT22;9652;49.014;12.052;2023-07-13T04:41:10;22.60;73.70
19039;DHT22;9652;49.014;12.052;2023-07-13T04:43:37;22.80;73.60
19039;DHT22;9652;49.014;12.052;2023-07-13T04:46:05;22.80;73.20
19039;DHT22;9652;49.014;12.052;2023-07-13T04:48:35;22.90;73.00
19039;DHT22;9652;49.014;12.052;2023-07-13T04:51:03;23.00;72.70
19039;DHT22;9652;49.014;12.052;2023-07-13T04:53:31;23.00;72.40
19039;DHT22;9652;49.014;12.052;2023-07-13T04:56:00;22.90;72.20
19039;DHT22;9652;49.014;12.052;2023-07-13T04:58:27;23.10;72.10
19039;DHT22;9652;49.014;12.052;2023-07-13T05:00:59;23.10;71.90
19039;DHT22;9652;49.014;12.052;2023-07-13T05:03:28;23.10;71.60
19039;DHT22;9652;49.014;12.052;2023-07-13T05:05:58;23.10;71.50
19039;DHT22;9652;49.014;12.052;2023-07-13T05:08:26;23.20;71.20
19039;DHT22;9652;49.014;12.052;2023-07-13T05:10:54;23.20;71.10
19039;DHT22;9652;49.014;12.052;2023-07-13T05:13:22;23.20;70.80
19039;DHT22;9652;49.014;12.052;2023-07-13T05:15:56;23.20;70.60
19039;DHT22;9652;49.014;12.052;2023-07-13T05:18:24;23.30;70.30
19039;DHT22;9652;49.014;12.052;2023-07-13T05:20:59;23.50;70.50
19039;DHT22;9652;49.014;12.052;2023-07-13T05:23:27;23.30;70.00
19039;DHT22;9652;49.014;12.052;2023-07-13T05:25:55;23.20;69.80
19039;DHT22;9652;49.014;12.052;2023-07-13T05:28:22;23.30;69.90
19039;DHT22;9652;49.014;12.052;2023-07-13T05:30:50;23.40;70.00
19039;DHT22;9652;49.014;12.052;2023-07-13T05:33:17;23.30;70.00
19039;DHT22;9652;49.014;12.052;2023-07-13T05:35:44;23.30;70.00
19039;DHT22;9652;49.014;12.052;2023-07-13T05:38:13;23.40;69.90
19039;DHT22;9652;49.014;12.052;2023-07-13T05:40:42;23.50;69.70
19039;DHT22;9652;49.014;12.052;2023-07-13T05:43:10;23.50;69.40
19039;DHT22;9652;49.014;12.052;2023-07-13T05:45:37;23.60;68.70
19039;DHT22;9652;49.014;12.052;2023-07-13T05:48:04;23.70;68.30
19039;DHT22;9652;49.014;12.052;2023-07-13T05:50:32;23.70;68.00
19039;DHT22;9652;49.014;12.052;2023-07-13T05:52:59;23.80;67.00
19039;DHT22;9652;49.014;12.052;2023-07-13T05:55:27;23.70;66.50
19039;DHT22;9652;49.014;12.052;2023-07-13T05:57:54;23.80;66.10
19039;DHT22;9652;49.014;12.052;2023-07-13T06:00:23;23.90;66.10
19039;DHT22;9652;49.014;12.052;2023-07-13T06:02:51;23.90;65.10
19039;DHT22;9652;49.014;12.052;2023-07-13T06:05:19;23.90;65.00
19039;DHT22;9652;49.014;12.052;2023-07-13T06:07:46;24.00;64.40
19039;DHT22;9652;49.014;12.052;2023-07-13T06:10:14;24.00;64.00
19039;DHT22;9652;49.014;12.052;2023-07-13T06:12:43;24.00;63.50
19039;DHT22;9652;49.014;12.052;2023-07-13T06:15:11;24.00;63.30
19039;DHT22;9652;49.014;12.052;2023-07-13T06:17:38;24.00;63.20
19039;DHT22;9652;49.014;12.052;2023-07-13T06:20:07;24.00;63.30
19039;DHT22;9652;49.014;12.052;2023-07-13T06:22:35;24.00;63.30
19039;DHT22;9652;49.014;12.052;2023-07-13T06:25:03;24.00;63.20
19039;DHT22;9652;49.014;12.052;2023-07-13T06:27:31;24.10;62.60
19039;DHT22;9652;49.014;12.052;2023-07-13T06:30:00;24.10;62.40
19039;DHT22;9652;49.014;12.052;2023-07-13T06:32:28;24.30;62.30
19039;DHT22;9652;49.014;12.052;2023-07-13T06:34:55;24.10;61.90
19039;DHT22;9652;49.014;12.052;2023-07-13T06:37:22;24.10;61.50
19039;DHT22;9652;49.014;12.052;2023-07-13T06:39:49;24.10;61.40
19039;DHT22;9652;49.014;12.052;2023-07-13T06:42:17;24.10;61.40
19039;DHT22;9652;49.014;12.052;2023-07-13T06:44:44;24.20;61.30
19039;DHT22;9652;49.014;12.052;2023-07-13T06:47:12;24.20;61.00
19039;DHT22;9652;49.014;12.052;2023-07-13T06:49:39;24.10;61.00
19039;DHT22;9652;49.014;12.052;2023-07-13T06:52:07;24.10;60.90
19039;DHT22;9652;49.014;12.052;2023-07-13T06:54:34;24.10;60.90
19039;DHT22;9652;49.014;12.052;2023-07-13T06:57:01;24.10;60.80
19039;DHT22;9652;49.014;12.052;2023-07-13T06:59:28;24.20;60.70
19039;DHT22;9652;49.014;12.052;2023-07-13T07:01:55;24.20;60.50
19039;DHT22;9652;49.014;12.052;2023-07-13T07:04:24;24.30;60.10
19039;DHT22;9652;49.014;12.052;2023-07-13T07:06:51;24.40;59.80
19039;DHT22;9652;49.014;12.052;2023-07-13T07:09:19;24.40;59.90
19039;DHT22;9652;49.014;12.052;2023-07-13T07:11:47;24.40;59.90
19039;DHT22;9652;49.014;12.052;2023-07-13T07:14:14;24.50;59.90
19039;DHT22;9652;49.014;12.052;2023-07-13T07:16:41;24.60;59.80
19039;DHT22;9652;49.014;12.052;2023-07-13T07:19:08;24.70;59.80
19039;DHT22;9652;49.014;12.052;2023-07-13T07:21:37;24.80;59.50
19039;DHT22;9652;49.014;12.052;2023-07-13T07:24:05;25.00;59.30
19039;DHT22;9652;49.014;12.052;2023-07-13T07:26:33;25.10;59.20
19039;DHT22;9652;49.014;12.052;2023-07-13T07:29:00;25.30;59.10
19039;DHT22;9652;49.014;12.052;2023-07-13T07:31:27;25.40;58.80
19039;DHT22;9652;49.014;12.052;2023-07-13T07:33:54;25.60;58.80
19039;DHT22;9652;49.014;12.052;2023-07-13T07:36:22;25.70;58.20
19039;DHT22;9652;49.014;12.052;2023-07-13T07:38:50;26.00;58.20
19039;DHT22;9652;49.014;12.052;2023-07-13T07:41:18;26.20;58.00
19039;DHT22;9652;49.014;12.052;2023-07-13T07:43:45;26.40;58.00
19039;DHT22;9652;49.014;12.052;2023-07-13T07:46:12;26.50;57.30
19039;DHT22;9652;49.014;12.052;2023-07-13T07:48:39;26.60;56.60
19039;DHT22;9652;49.014;12.052;2023-07-13T07:51:06;26.70;55.60
19039;DHT22;9652;49.014;12.052;2023-07-13T07:53:33;26.70;55.50
19039;DHT22;9652;49.014;12.052;2023-07-13T07:56:01;26.70;55.20
19039;DHT22;9652;49.014;12.052;2023-07-13T07:58:29;26.70;54.80
19039;DHT22;9652;49.014;12.052;2023-07-13T08:01:02;26.70;54.70
19039;DHT22;9652;49.014;12.052;2023-07-13T08:03:30;26.60;54.30
19039;DHT22;9652;49.014;12.052;2023-07-13T08:05:57;26.60;54.80
19039;DHT22;9652;49.014;12.052;2023-07-13T08:08:25;26.50;54.80
19039;DHT22;9652;49.014;12.052;2023-07-13T08:10:52;26.50;54.60
19039;DHT22;9652;49.014;12.052;2023-07-13T08:13:21;26.50;54.30
19039;DHT22;9652;49.014;12.052;2023-07-13T08:15:48;26.20;52.20
19039;DHT22;9652;49.014;12.052;2023-07-13T08:18:16;26.30;53.00
19039;DHT22;9652;49.014;12.052;2023-07-13T08:20:43;26.40;52.90
19039;DHT22;9652;49.014;12.052;2023-07-13T08:23:11;26.40;52.90
19039;DHT22;9652;49.014;12.052;2023-07-13T08:25:38;26.40;52.90
19039;DHT22;9652;49.014;12.052;2023-07-13T08:28:05;26.40;52.50
19039;DHT22;9652;49.014;12.052;2023-07-13T08:30:33;26.40;52.70
19039;DHT22;9652;49.014;12.052;2023-07-13T08:33:02;26.50;52.20
19039;DHT22;9652;49.014;12.052;2023-07-13T08:35:29;26.50;52.10
19039;DHT22;9652;49.014;12.052;2023-07-13T08:37:56;26.50;52.00
19039;DHT22;9652;49.014;12.052;2023-07-13T08:40:25;26.40;51.80
19039;DHT22;9652;49.014;12.052;2023-07-13T08:42:54;26.50;51.50
19039;DHT22;9652;49.014;12.052;2023-07-13T08:45:28;26.50;51.90
19039;DHT22;9652;49.014;12.052;2023-07-13T08:48:04;26.60;51.70
19039;DHT22;9652;49.014;12.052;2023-07-13T08:50:40;26.60;51.20
19039;DHT22;9652;49.014;12.052;2023-07-13T08:53:16;26.60;51.10
19039;DHT22;9652;49.014;12.052;2023-07-13T08:55:44;26.70;51.00
19039;DHT22;9652;49.014;12.052;2023-07-13T08:58:12;26.70;51.30
19039;DHT22;9652;49.014;12.052;2023-07-13T09:00:46;26.80;51.50
19039;DHT22;9652;49.014;12.052;2023-07-13T09:03:24;26.80;49.00
19039;DHT22;9652;49.014;12.052;2023-07-13T09:05:58;27.00;49.30
19039;DHT22;9652;49.014;12.052;2023-07-13T09:08:38;27.30;49.80
19039;DHT22;9652;49.014;12.052;2023-07-13T09:11:23;27.50;49.10
19039;DHT22;9652;49.014;12.052;2023-07-13T09:14:06;27.70;48.00
19039;DHT22;9652;49.014;12.052;2023-07-13T09:16:53;27.80;48.40
19039;DHT22;9652;49.014;12.052;2023-07-13T09:19:26;27.90;48.10
19039;DHT22;9652;49.014;12.052;2023-07-13T09:22:00;28.00;48.30
19039;DHT22;9652;49.014;12.052;2023-07-13T09:24:36;28.00;48.50
19039;DHT22;9652;49.014;12.052;2023-07-13T09:27:13;28.10;47.30
19039;DHT22;9652;49.014;12.052;2023-07-13T09:29:47;28.10;46.50
19039;DHT22;9652;49.014;12.052;2023-07-13T09:32:21;28.10;47.10
19039;DHT22;9652;49.014;12.052;2023-07-13T09:34:54;28.10;47.80
19039;DHT22;9652;49.014;12.052;2023-07-13T09:37:24;28.00;47.60
19039;DHT22;9652;49.014;12.052;2023-07-13T09:39:58;28.00;47.60
19039;DHT22;9652;49.014;12.052;2023-07-13T09:42:31;28.00;47.50
19039;DHT22;9652;49.014;12.052;2023-07-13T09:45:01;28.00;47.40
19039;DHT22;9652;49.014;12.052;2023-07-13T09:47:31;28.00;47.20
19039;DHT22;9652;49.014;12.052;2023-07-13T09:50:03;27.90;46.80
19039;DHT22;9652;49.014;12.052;2023-07-13T09:52:41;28.00;46.30
19039;DHT22;9652;49.014;12.052;2023-07-13T09:55:24;28.00;45.60
19039;DHT22;9652;49.014;12.052;2023-07-13T09:57:53;28.00;45.00
19039;DHT22;9652;49.014;12.052;2023-07-13T10:00:26;28.00;45.70
19039;DHT22;9652;49.014;12.052;2023-07-13T10:03:03;28.00;44.90
19039;DHT22;9652;49.014;12.052;2023-07-13T10:05:41;28.10;45.50
19039;DHT22;9652;49.014;12.052;2023-07-13T10:08:18;28.20;44.80
19039;DHT22;9652;49.014;12.052;2023-07-13T10:10:53;28.20;45.00
19039;DHT22;9652;49.014;12.052;2023-07-13T10:13:34;28.30;45.30
19039;DHT22;9652;49.014;12.052;2023-07-13T10:16:04;28.40;45.10
19039;DHT22;9652;49.014;12.052;2023-07-13T10:18:39;28.60;45.60
19039;DHT22;9652;49.014;12.052;2023-07-13T10:21:14;28.70;43.70
19039;DHT22;9652;49.014;12.052;2023-07-13T10:23:45;28.80;44.30
19039;DHT22;9652;49.014;12.052;2023-07-13T10:26:21;29.00;44.20
19039;DHT22;9652;49.014;12.052;2023-07-13T10:28:53;29.00;43.30
19039;DHT22;9652;49.014;12.052;2023-07-13T10:31:24;29.20;42.90
19039;DHT22;9652;49.014;12.052;2023-07-13T10:33:51;29.30;42.30
19039;DHT22;9652;49.014;12.052;2023-07-13T10:36:29;29.40;43.10
19039;DHT22;9652;49.014;12.052;2023-07-13T10:39:03;29.50;42.10
19039;DHT22;9652;49.014;12.052;2023-07-13T10:41:35;29.60;42.40
19039;DHT22;9652;49.014;12.052;2023-07-13T10:44:10;29.60;41.10
19039;DHT22;9652;49.014;12.052;2023-07-13T10:46:46;29.80;41.80
19039;DHT22;9652;49.014;12.052;2023-07-13T10:49:14;29.90;41.90
19039;DHT22;9652;49.014;12.052;2023-07-13T10:51:44;29.90;41.60
19039;DHT22;9652;49.014;12.052;2023-07-13T10:54:20;29.90;40.60
19039;DHT22;9652;49.014;12.052;2023-07-13T10:56:53;29.90;40.70
19039;DHT22;9652;49.014;12.052;2023-07-13T10:59:37;29.90;40.00
19039;DHT22;9652;49.014;12.052;2023-07-13T11:02:22;29.90;40.40
19039;DHT22;9652;49.014;12.052;2023-07-13T11:04:54;29.70;39.10
19039;DHT22;9652;49.014;12.052;2023-07-13T11:07:25;29.70;39.50
19039;DHT22;9652;49.014;12.052;2023-07-13T11:09:56;29.60;39.60
19039;DHT22;9652;49.014;12.052;2023-07-13T11:12:49;29.40;39.70
19039;DHT22;9652;49.014;12.052;2023-07-13T11:15:30;29.30;38.90
19039;DHT22;9652;49.014;12.052;2023-07-13T11:18:03;29.20;39.50
19039;DHT22;9652;49.014;12.052;2023-07-13T11:20:35;29.10;39.80
19039;DHT22;9652;49.014;12.052;2023-07-13T11:23:30;29.10;38.80
19039;DHT22;9652;49.014;12.052;2023-07-13T11:25:58;28.90;37.80
19039;DHT22;9652;49.014;12.052;2023-07-13T11:28:30;28.90;39.10
19039;DHT22;9652;49.014;12.052;2023-07-13T11:31:04;28.80;39.40
19039;DHT22;9652;49.014;12.052;2023-07-13T11:33:56;28.90;39.60
19039;DHT22;9652;49.014;12.052;2023-07-13T11:36:30;28.80;38.60
19039;DHT22;9652;49.014;12.052;2023-07-13T11:39:16;28.40;37.80
19039;DHT22;9652;49.014;12.052;2023-07-13T11:41:50;28.60;38.30
19039;DHT22;9652;49.014;12.052;2023-07-13T11:44:22;28.70;38.70
19039;DHT22;9652;49.014;12.052;2023-07-13T11:46:52;28.80;38.90
19039;DHT22;9652;49.014;12.052;2023-07-13T11:49:22;28.60;37.40
19039;DHT22;9652;49.014;12.052;2023-07-13T11:51:51;28.70;38.30
19039;DHT22;9652;49.014;12.052;2023-07-13T11:54:26;28.80;38.80
19039;DHT22;9652;49.014;12.052;2023-07-13T11:56:57;28.90;38.20
19039;DHT22;9652;49.014;12.052;2023-07-13T11:59:27;28.90;38.40
19039;DHT22;9652;49.014;12.052;2023-07-13T12:01:58;29.00;38.50
19039;DHT22;9652;49.014;12.052;2023-07-13T12:04:29;29.00;38.30
19039;DHT22;9652;49.014;12.052;2023-07-13T12:07:04;29.00;38.40
19039;DHT22;9652;49.014;12.052;2023-07-13T12:09:35;29.10;38.10
19039;DHT22;9652;49.014;12.052;2023-07-13T12:12:11;29.10;38.20
19039;DHT22;9652;49.014;12.052;2023-07-13T12:14:40;29.20;37.60
19039;DHT22;9652;49.014;12.052;2023-07-13T12:17:18;29.20;38.00
19039;DHT22;9652;49.014;12.052;2023-07-13T12:19:48;29.20;37.30
19039;DHT22;9652;49.014;12.052;2023-07-13T12:22:19;29.30;37.30
19039;DHT22;9652;49.014;12.052;2023-07-13T12:24:51;29.30;37.70
19039;DHT22;9652;49.014;12.052;2023-07-13T12:27:21;29.40;37.90
19039;DHT22;9652;49.014;12.052;2023-07-13T12:29:52;29.50;38.10
19039;DHT22;9652;49.014;12.052;2023-07-13T12:32:25;29.50;37.60
19039;DHT22;9652;49.014;12.052;2023-07-13T12:34:54;29.60;37.10
19039;DHT22;9652;49.014;12.052;2023-07-13T12:37:23;29.70;37.50
19039;DHT22;9652;49.014;12.052;2023-07-13T12:39:52;29.80;37.70
19039;DHT22;9652;49.014;12.052;2023-07-13T12:42:21;29.80;37.20
19039;DHT22;9652;49.014;12.052;2023-07-13T12:44:53;29.90;36.60
19039;DHT22;9652;49.014;12.052;2023-07-13T12:47:23;29.90;36.40
19039;DHT22;9652;49.014;12.052;2023-07-13T12:49:55;29.90;36.00
19039;DHT22;9652;49.014;12.052;2023-07-13T12:52:28;29.90;36.30
19039;DHT22;9652;49.014;12.052;2023-07-13T12:55:06;29.80;35.90
19039;DHT22;9652;49.014;12.052;2023-07-13T12:57:41;29.50;34.80
19039;DHT22;9652;49.014;12.052;2023-07-13T13:00:25;29.70;35.80
19039;DHT22;9652;49.014;12.052;2023-07-13T13:03:02;29.90;35.30
19039;DHT22;9652;49.014;12.052;2023-07-13T13:05:35;30.00;35.80
19039;DHT22;9652;49.014;12.052;2023-07-13T13:08:04;29.90;34.30
19039;DHT22;9652;49.014;12.052;2023-07-13T13:10:32;30.10;35.60
19039;DHT22;9652;49.014;12.052;2023-07-13T13:13:01;30.30;35.10
19039;DHT22;9652;49.014;12.052;2023-07-13T13:15:29;30.40;35.30
19039;DHT22;9652;49.014;12.052;2023-07-13T13:17:56;30.50;35.20
19039;DHT22;9652;49.014;12.052;2023-07-13T13:20:24;30.70;35.00
19039;DHT22;9652;49.014;12.052;2023-07-13T13:22:53;30.90;35.00
19039;DHT22;9652;49.014;12.052;2023-07-13T13:25:20;31.20;35.60
19039;DHT22;9652;49.014;12.052;2023-07-13T13:27:49;31.50;35.30
19039;DHT22;9652;49.014;12.052;2023-07-13T13:30:17;31.70;34.00
19039;DHT22;9652;49.014;12.052;2023-07-13T13:32:47;31.90;34.20
19039;DHT22;9652;49.014;12.052;2023-07-13T13:35:16;32.20;34.20
19039;DHT22;9652;49.014;12.052;2023-07-13T13:37:46;32.50;33.60
19039;DHT22;9652;49.014;12.052;2023-07-13T13:40:17;32.70;33.30
19039;DHT22;9652;49.014;12.052;2023-07-13T13:42:46;32.90;32.80
19039;DHT22;9652;49.014;12.052;2023-07-13T13:45:14;33.10;33.10
19039;DHT22;9652;49.014;12.052;2023-07-13T13:47:44;33.30;32.80
19039;DHT22;9652;49.014;12.052;2023-07-13T13:52:41;33.60;31.80
19039;DHT22;9652;49.014;12.052;2023-07-13T13:55:13;33.70;31.90
19039;DHT22;9652;49.014;12.052;2023-07-13T13:57:41;33.70;30.50
19039;DHT22;9652;49.014;12.052;2023-07-13T14:00:09;33.60;31.40
19039;DHT22;9652;49.014;12.052;2023-07-13T14:02:42;33.60;31.90
19039;DHT22;9652;49.014;12.052;2023-07-13T14:05:22;33.30;30.70
19039;DHT22;9652;49.014;12.052;2023-07-13T14:07:51;33.50;31.00
19039;DHT22;9652;49.014;12.052;2023-07-13T14:10:20;33.70;31.20
19039;DHT22;9652;49.014;12.052;2023-07-13T14:12:50;33.80;31.10
19039;DHT22;9652;49.014;12.052;2023-07-13T14:15:21;33.90;30.60
19039;DHT22;9652;49.014;12.052;2023-07-13T14:17:52;34.00;30.80
19039;DHT22;9652;49.014;12.052;2023-07-13T14:20:21;34.10;30.60
19039;DHT22;9652;49.014;12.052;2023-07-13T14:22:51;34.10;30.30
19039;DHT22;9652;49.014;12.052;2023-07-13T14:25:21;34.10;30.20
19039;DHT22;9652;49.014;12.052;2023-07-13T14:27:50;34.10;30.00
19039;DHT22;9652;49.014;12.052;2023-07-13T14:30:22;34.10;29.80
19039;DHT22;9652;49.014;12.052;2023-07-13T14:32:49;34.00;30.20
19039;DHT22;9652;49.014;12.052;2023-07-13T14:35:21;34.00;30.30
19039;DHT22;9652;49.014;12.052;2023-07-13T14:37:50;34.00;30.60
19039;DHT22;9652;49.014;12.052;2023-07-13T14:40:24;34.10;30.30
19039;DHT22;9652;49.014;12.052;2023-07-13T14:42:56;34.30;30.70
19039;DHT22;9652;49.014;12.052;2023-07-13T14:45:24;34.50;31.50
19039;DHT22;9652;49.014;12.052;2023-07-13T14:47:52;34.80;31.30
19039;DHT22;9652;49.014;12.052;2023-07-13T14:50:31;35.20;31.20
19039;DHT22;9652;49.014;12.052;2023-07-13T14:53:00;35.60;30.00
19039;DHT22;9652;49.014;12.052;2023-07-13T14:55:27;36.00;29.80
19039;DHT22;9652;49.014;12.052;2023-07-13T14:57:54;36.10;29.10
19039;DHT22;9652;49.014;12.052;2023-07-13T15:00:23;36.20;28.90
19039;DHT22;9652;49.014;12.052;2023-07-13T15:02:52;36.30;29.10
19039;DHT22;9652;49.014;12.052;2023-07-13T15:05:24;36.30;28.50
19039;DHT22;9652;49.014;12.052;2023-07-13T15:07:53;36.50;28.30
19039;DHT22;9652;49.014;12.052;2023-07-13T15:10:22;36.70;28.80
19039;DHT22;9652;49.014;12.052;2023-07-13T15:12:51;36.90;28.40
19039;DHT22;9652;49.014;12.052;2023-07-13T15:15:19;37.00;28.10
19039;DHT22;9652;49.014;12.052;2023-07-13T15:17:47;37.10;28.30
19039;DHT22;9652;49.014;12.052;2023-07-13T15:20:21;37.20;28.50
19039;DHT22;9652;49.014;12.052;2023-07-13T15:22:53;37.40;27.80
19039;DHT22;9652;49.014;12.052;2023-07-13T15:25:24;37.60;28.00
19039;DHT22;9652;49.014;12.052;2023-07-13T15:27:54;37.80;27.00
19039;DHT22;9652;49.014;12.052;2023-07-13T15:30:24;37.90;27.00
19039;DHT22;9652;49.014;12.052;2023-07-13T15:33:09;37.90;26.90
19039;DHT22;9652;49.014;12.052;2023-07-13T15:35:40;37.90;26.40
19039;DHT22;9652;49.014;12.052;2023-07-13T15:38:15;37.90;27.20
19039;DHT22;9652;49.014;12.052;2023-07-13T15:40:44;37.90;26.10
19039;DHT22;9652;49.014;12.052;2023-07-13T15:43:12;37.90;26.50
19039;DHT22;9652;49.014;12.052;2023-07-13T15:45:40;37.90;26.90
19039;DHT22;9652;49.014;12.052;2023-07-13T15:48:16;37.90;27.00
19039;DHT22;9652;49.014;12.052;2023-07-13T15:50:48;38.00;26.50
19039;DHT22;9652;49.014;12.052;2023-07-13T15:53:20;38.10;26.20